Time;durP1;ratioP1;P1;durP2;ratioP2;P2;SDS_P1;SDS_P2;PMS_P1;PMS_P2;Temp;Humidity;BMP_temperature;BMP_pressure;BME280_temperature;BME280_humidity;BME280_pressure;Samples;Min_cycle;Max_cycle;Signal;HPM_P1;HPM_P2
2023/05/11 00:00:44;;;;;;;0.90;0.90;;;11.00;99.90;;;;;;5066772;28;20495;-80
2023/05/11 00:03:11;;;;;;;0.77;0.77;;;10.90;99.90;;;;;;5051844;28;20535;-82
2023/05/11 00:05:38;;;;;;;0.70;0.70;;;10.90;99.90;;;;;;5066775;28;21016;-81
2023/05/11 00:08:07;;;;;;;2.60;0.70;;;10.90;99.90;;;;;;5064726;28;21007;-80
2023/05/11 00:10:34;;;;;;;0.70;0.67;;;10.90;99.90;;;;;;5058724;28;20448;-80
2023/05/11 00:13:01;;;;;;;2.07;0.90;;;10.80;99.90;;;;;;5059889;28;20434;-82
2023/05/11 00:15:28;;;;;;;0.83;0.83;;;10.80;99.90;;;;;;5059639;28;20504;-80
2023/05/11 00:17:55;;;;;;;1.43;0.77;;;10.70;99.90;;;;;;5062820;28;20949;-80
2023/05/11 00:20:22;;;;;;;0.60;0.50;;;10.70;99.90;;;;;;5051890;28;20937;-80
2023/05/11 00:22:49;;;;;;;0.60;0.60;;;10.70;99.90;;;;;;5053033;28;20690;-80
2023/05/11 00:25:18;;;;;;;1.50;0.67;;;10.70;99.90;;;;;;5056384;28;20452;-80
2023/05/11 00:27:45;;;;;;;0.50;0.50;;;10.70;99.90;;;;;;5062363;28;21036;-81
2023/05/11 00:30:14;;;;;;;0.50;0.50;;;10.60;99.90;;;;;;5064786;28;20456;-79
2023/05/11 00:32:41;;;;;;;0.57;0.57;;;10.60;99.90;;;;;;5061262;28;21177;-81
2023/05/11 00:35:09;;;;;;;0.60;0.60;;;10.60;99.90;;;;;;5065589;28;20562;-80
2023/05/11 00:37:36;;;;;;;0.60;0.60;;;10.60;99.90;;;;;;5054453;28;20449;-80
2023/05/11 00:40:03;;;;;;;1.00;0.83;;;10.60;99.90;;;;;;5064884;28;20513;-81
2023/05/11 00:42:32;;;;;;;2.67;0.80;;;10.60;99.90;;;;;;5060225;28;20441;-80
2023/05/11 00:44:59;;;;;;;3.53;0.67;;;10.60;99.90;;;;;;5070898;28;20463;-80
2023/05/11 00:47:26;;;;;;;0.60;0.50;;;10.60;99.90;;;;;;5064789;28;20448;-79
2023/05/11 00:49:54;;;;;;;0.60;0.50;;;10.60;99.90;;;;;;5056841;28;21003;-80
2023/05/11 00:52:21;;;;;;;0.77;0.50;;;10.50;99.90;;;;;;5069200;28;20452;-79
2023/05/11 00:54:49;;;;;;;0.50;0.50;;;10.50;99.90;;;;;;5054196;28;21422;-80
2023/05/11 00:57:16;;;;;;;0.60;0.50;;;10.50;99.90;;;;;;5076942;28;20525;-79
2023/05/11 00:59:45;;;;;;;0.60;0.60;;;10.50;99.90;;;;;;5078977;28;20452;-83
2023/05/11 01:02:11;;;;;;;0.70;0.70;;;10.40;99.90;;;;;;5079458;28;20482;-79
2023/05/11 01:04:38;;;;;;;0.80;0.70;;;10.40;99.90;;;;;;5072210;28;20461;-79
2023/05/11 01:07:12;;;;;;;0.87;0.80;;;10.40;99.90;;;;;;5068788;28;20513;-81
2023/05/11 01:09:49;;;;;;;0.60;0.57;;;10.40;99.90;;;;;;5060441;28;20502;-79
2023/05/11 01:12:26;;;;;;;0.60;0.60;;;10.40;99.90;;;;;;5067731;28;20896;-80
2023/05/11 01:15:02;;;;;;;0.63;0.60;;;10.30;99.90;;;;;;5066463;28;20476;-79
2023/05/11 01:17:40;;;;;;;0.57;0.57;;;10.30;99.90;;;;;;5068523;28;21009;-82
2023/05/11 01:20:16;;;;;;;0.80;0.63;;;10.30;99.90;;;;;;5076373;28;20863;-79
2023/05/11 01:22:55;;;;;;;0.60;0.60;;;10.30;99.90;;;;;;5060020;28;20499;-80
2023/05/11 01:25:32;;;;;;;0.50;0.47;;;10.30;99.90;;;;;;5060394;28;20811;-79
2023/05/11 01:28:21;;;;;;;1.73;0.60;;;10.30;99.90;;;;;;5053686;28;20543;-81
2023/05/11 01:30:52;;;;;;;0.40;0.40;;;10.30;99.90;;;;;;5067331;28;20452;-82
2023/05/11 01:33:26;;;;;;;1.33;0.50;;;10.30;99.90;;;;;;5062661;28;20448;-80
2023/05/11 01:36:00;;;;;;;0.60;0.60;;;10.30;99.90;;;;;;5056946;28;20442;-82
2023/05/11 01:38:32;;;;;;;0.60;0.57;;;10.30;99.90;;;;;;5066020;28;20516;-82
2023/05/11 01:41:03;;;;;;;2.30;0.80;;;10.30;99.90;;;;;;5059958;28;20457;-79
2023/05/11 01:43:33;;;;;;;0.60;0.60;;;10.20;99.90;;;;;;5058112;28;20436;-80
2023/05/11 01:46:06;;;;;;;0.60;0.60;;;10.30;99.90;;;;;;5062656;28;21041;-79
2023/05/11 01:48:40;;;;;;;0.63;0.60;;;10.20;99.90;;;;;;5062756;28;20476;-81
2023/05/11 01:51:09;;;;;;;1.20;0.70;;;10.30;99.90;;;;;;5061814;28;20450;-79
2023/05/11 01:53:38;;;;;;;0.70;0.70;;;10.30;99.90;;;;;;5059082;28;20530;-80
2023/05/11 01:56:07;;;;;;;0.60;0.60;;;10.30;99.90;;;;;;5063006;28;20502;-79
2023/05/11 01:58:38;;;;;;;0.80;0.60;;;10.20;99.90;;;;;;5061196;28;20543;-80
2023/05/11 02:01:08;;;;;;;0.70;0.60;;;10.20;99.90;;;;;;5070343;28;20505;-80
2023/05/11 02:03:36;;;;;;;0.87;0.60;;;10.20;99.90;;;;;;5060038;28;20928;-82
2023/05/11 02:06:06;;;;;;;1.43;0.77;;;10.20;99.90;;;;;;5061000;28;20527;-81
2023/05/11 02:08:34;;;;;;;0.70;0.70;;;10.20;99.90;;;;;;5059794;28;20505;-79
2023/05/11 02:11:02;;;;;;;1.20;0.80;;;10.20;99.90;;;;;;5060553;28;20534;-82
2023/05/11 02:13:31;;;;;;;0.80;0.70;;;10.20;99.90;;;;;;5063384;28;20526;-79
2023/05/11 02:15:59;;;;;;;1.00;0.70;;;10.20;99.90;;;;;;5068753;28;20453;-80
2023/05/11 02:18:29;;;;;;;0.80;0.80;;;10.10;99.90;;;;;;5058514;28;20448;-82
2023/05/11 02:20:58;;;;;;;1.00;0.90;;;10.10;99.90;;;;;;5057927;28;20503;-80
2023/05/11 02:23:26;;;;;;;0.70;0.70;;;10.10;99.90;;;;;;5063330;28;20526;-81
2023/05/11 02:25:54;;;;;;;1.47;0.80;;;10.10;99.90;;;;;;5063419;28;20509;-81
2023/05/11 02:28:21;;;;;;;0.80;0.80;;;10.10;99.90;;;;;;5050655;28;20853;-80
2023/05/11 02:30:52;;;;;;;0.90;0.70;;;10.10;99.90;;;;;;5069786;28;20456;-79
2023/05/11 02:33:23;;;;;;;2.03;0.80;;;10.10;99.90;;;;;;5066545;28;20926;-80
2023/05/11 02:35:55;;;;;;;0.73;0.73;;;10.10;99.90;;;;;;5065428;28;20487;-80
2023/05/11 02:38:30;;;;;;;4.03;1.00;;;10.10;99.90;;;;;;5067256;28;20522;-82
2023/05/11 02:41:01;;;;;;;2.50;1.00;;;10.10;99.90;;;;;;5064320;28;20444;-80
2023/05/11 02:43:33;;;;;;;3.07;0.90;;;10.10;99.90;;;;;;5069072;28;20900;-80
2023/05/11 02:46:03;;;;;;;2.30;1.50;;;10.10;99.90;;;;;;5066773;28;21003;-80
2023/05/11 02:48:34;;;;;;;1.20;0.87;;;10.00;99.90;;;;;;5057222;28;20463;-79
2023/05/11 02:51:04;;;;;;;2.67;0.90;;;10.00;99.90;;;;;;5063988;28;20441;-82
2023/05/11 02:53:32;;;;;;;1.53;1.43;;;10.00;99.90;;;;;;5066529;28;20456;-81
2023/05/11 02:56:00;;;;;;;1.13;1.00;;;10.00;99.90;;;;;;5062565;28;20541;-80
2023/05/11 02:58:28;;;;;;;1.50;1.13;;;10.10;99.90;;;;;;5068139;28;20444;-83
2023/05/11 03:00:55;;;;;;;1.10;1.00;;;10.00;99.90;;;;;;5057240;28;20441;-80
2023/05/11 03:03:22;;;;;;;1.37;1.27;;;10.10;99.90;;;;;;5058825;28;20474;-80
2023/05/11 03:05:50;;;;;;;3.20;1.23;;;10.10;99.90;;;;;;5069729;28;20505;-81
2023/05/11 03:08:18;;;;;;;1.30;0.80;;;10.10;99.90;;;;;;5063039;28;20449;-79
2023/05/11 03:10:46;;;;;;;0.87;0.87;;;10.10;99.90;;;;;;5060486;28;21031;-79
2023/05/11 03:13:15;;;;;;;3.03;1.10;;;10.10;99.90;;;;;;5063804;28;20501;-79
2023/05/11 03:15:43;;;;;;;1.17;0.80;;;10.10;99.90;;;;;;5067284;28;20484;-80
2023/05/11 03:18:11;;;;;;;1.63;0.80;;;10.00;99.90;;;;;;5059718;28;20466;-79
2023/05/11 03:20:41;;;;;;;1.33;0.80;;;10.00;99.90;;;;;;5062600;28;20522;-79
2023/05/11 03:23:09;;;;;;;0.73;0.73;;;10.10;99.90;;;;;;5063560;28;20444;-82
2023/05/11 03:25:38;;;;;;;1.30;1.13;;;10.10;99.90;;;;;;5067422;28;20840;-80
2023/05/11 03:28:05;;;;;;;0.60;0.60;;;10.10;99.90;;;;;;5069251;28;20742;-81
2023/05/11 03:30:33;;;;;;;0.97;0.97;;;10.00;99.90;;;;;;5067941;28;20449;-82
2023/05/11 03:33:01;;;;;;;1.00;0.70;;;10.10;99.90;;;;;;5063676;28;20465;-80
2023/05/11 03:35:31;;;;;;;0.80;0.80;;;10.10;99.90;;;;;;5055600;28;20576;-82
2023/05/11 03:37:59;;;;;;;0.67;0.67;;;10.10;99.90;;;;;;5068652;28;20454;-81
2023/05/11 03:40:28;;;;;;;1.30;0.80;;;10.10;99.90;;;;;;5067089;28;20582;-80
2023/05/11 03:42:59;;;;;;;2.40;1.00;;;10.10;99.90;;;;;;5056329;28;20537;-80
2023/05/11 03:45:30;;;;;;;1.07;0.87;;;10.10;99.90;;;;;;5065256;28;20470;-80
2023/05/11 03:47:57;;;;;;;1.03;0.83;;;10.10;99.90;;;;;;5057499;28;20492;-80
2023/05/11 03:50:25;;;;;;;1.10;1.00;;;10.10;99.90;;;;;;5066773;28;20445;-83
2023/05/11 03:52:53;;;;;;;1.37;1.10;;;10.10;99.90;;;;;;5067563;28;20456;-80
2023/05/11 03:55:20;;;;;;;0.77;0.70;;;10.20;99.90;;;;;;5069097;28;20480;-80
2023/05/11 03:57:47;;;;;;;1.83;0.80;;;10.10;99.90;;;;;;5067858;28;20450;-81
2023/05/11 04:00:16;;;;;;;1.17;1.17;;;10.10;99.90;;;;;;5067184;28;20501;-80
2023/05/11 04:02:43;;;;;;;0.80;0.70;;;10.20;99.90;;;;;;5070862;28;20456;-81
2023/05/11 04:05:12;;;;;;;2.80;1.17;;;10.20;99.90;;;;;;5071100;28;20517;-80
2023/05/11 04:07:39;;;;;;;2.73;0.80;;;10.20;99.90;;;;;;5067707;28;20837;-81
2023/05/11 04:10:07;;;;;;;0.60;0.60;;;10.20;99.90;;;;;;5061306;28;20460;-80
2023/05/11 04:12:34;;;;;;;1.63;0.80;;;10.30;99.90;;;;;;5088292;28;20437;-80
2023/05/11 04:15:01;;;;;;;1.63;0.80;;;10.30;99.90;;;;;;5072739;28;20570;-80
2023/05/11 04:17:30;;;;;;;1.43;0.67;;;10.20;99.90;;;;;;5074257;28;20471;-79
2023/05/11 04:19:57;;;;;;;1.53;0.90;;;10.30;99.90;;;;;;5059390;28;20441;-80
2023/05/11 04:22:23;;;;;;;0.87;0.80;;;10.20;99.90;;;;;;5061573;28;20445;-82
2023/05/11 04:24:50;;;;;;;1.97;0.80;;;10.20;99.90;;;;;;5067658;28;20468;-80
2023/05/11 04:27:17;;;;;;;1.07;0.73;;;10.20;99.90;;;;;;5065607;28;20453;-82
2023/05/11 04:29:44;;;;;;;3.70;0.80;;;10.10;99.90;;;;;;5067279;28;20856;-80
2023/05/11 04:32:11;;;;;;;1.33;0.80;;;10.20;99.90;;;;;;5066194;28;20463;-81
2023/05/11 04:34:40;;;;;;;0.80;0.60;;;10.20;99.90;;;;;;5071839;28;20543;-80
2023/05/11 04:37:07;;;;;;;1.87;0.60;;;10.30;99.90;;;;;;5070067;28;20589;-82
2023/05/11 04:39:34;;;;;;;11.00;8.90;;;10.20;99.90;;;;;;5064699;28;20858;-79
2023/05/11 04:42:01;;;;;;;2.40;2.17;;;10.30;99.90;;;;;;5067159;28;20450;-81
2023/05/11 04:44:28;;;;;;;1.33;1.17;;;10.20;99.90;;;;;;5072497;28;20544;-81
2023/05/11 04:46:56;;;;;;;1.20;1.10;;;10.20;99.90;;;;;;5063434;28;20525;-79
2023/05/11 04:49:23;;;;;;;1.07;0.60;;;10.20;99.90;;;;;;5066113;28;20575;-80
2023/05/11 04:51:51;;;;;;;0.83;0.83;;;10.20;99.90;;;;;;5067695;28;20546;-78
2023/05/11 04:54:18;;;;;;;1.03;0.93;;;10.30;99.90;;;;;;5067026;28;20476;-77
2023/05/11 04:56:45;;;;;;;2.27;0.80;;;10.30;99.90;;;;;;5065532;28;20456;-78
2023/05/11 04:59:12;;;;;;;1.30;1.20;;;10.40;99.90;;;;;;5066426;28;20882;-77
2023/05/11 05:01:39;;;;;;;4.97;0.90;;;10.40;99.90;;;;;;5061804;28;20457;-78
2023/05/11 05:04:06;;;;;;;1.63;1.53;;;10.40;99.90;;;;;;5059881;28;20955;-78
2023/05/11 05:06:33;;;;;;;3.23;1.67;;;10.30;99.90;;;;;;5066793;28;20448;-78
2023/05/11 05:09:02;;;;;;;1.90;1.77;;;10.40;99.90;;;;;;5065067;28;20441;-77
2023/05/11 05:11:29;;;;;;;1.90;1.63;;;10.50;99.90;;;;;;5063165;28;20461;-78
2023/05/11 05:13:56;;;;;;;1.90;1.33;;;10.50;99.90;;;;;;5058065;28;20441;-77
2023/05/11 05:16:22;;;;;;;1.33;1.20;;;10.70;99.90;;;;;;5057529;28;20543;-78
2023/05/11 05:18:49;;;;;;;1.17;1.07;;;10.70;99.90;;;;;;5052915;28;20465;-77
2023/05/11 05:21:16;;;;;;;1.57;1.47;;;10.80;99.90;;;;;;5054335;28;20445;-79
2023/05/11 05:23:43;;;;;;;1.03;0.93;;;10.70;99.90;;;;;;5060039;28;20445;-77
2023/05/11 05:26:12;;;;;;;2.00;0.80;;;10.70;99.90;;;;;;5059993;28;20935;-77
2023/05/11 05:28:39;;;;;;;1.30;1.10;;;10.50;99.90;;;;;;5063427;28;20452;-76
2023/05/11 05:31:06;;;;;;;1.20;1.10;;;10.50;99.90;;;;;;5067203;28;20460;-78
2023/05/11 05:33:33;;;;;;;1.10;0.80;;;10.50;99.90;;;;;;5066132;28;20849;-78
2023/05/11 05:36:00;;;;;;;1.53;1.43;;;10.50;99.90;;;;;;5063432;28;21164;-78
2023/05/11 05:38:27;;;;;;;2.80;1.50;;;10.50;99.90;;;;;;5065403;28;20436;-79
2023/05/11 05:40:54;;;;;;;1.33;0.70;;;10.40;99.90;;;;;;5057707;28;20463;-79
2023/05/11 05:43:23;;;;;;;1.13;0.87;;;10.40;99.90;;;;;;5061489;28;20521;-78
2023/05/11 05:45:50;;;;;;;1.50;0.80;;;10.40;99.90;;;;;;5062659;28;20517;-79
2023/05/11 05:48:17;;;;;;;2.60;1.00;;;10.50;99.90;;;;;;5063284;28;20900;-77
2023/05/11 05:50:43;;;;;;;0.93;0.93;;;10.60;99.90;;;;;;5060867;28;20906;-78
2023/05/11 05:53:10;;;;;;;1.33;1.23;;;10.80;99.90;;;;;;5062298;28;21017;-77
2023/05/11 05:55:37;;;;;;;1.40;1.07;;;10.80;99.90;;;;;;5066688;28;20477;-77
2023/05/11 05:58:04;;;;;;;2.33;1.00;;;10.90;99.90;;;;;;5059823;28;20513;-78
2023/05/11 06:00:33;;;;;;;2.07;1.17;;;10.90;99.90;;;;;;5060337;28;20509;-76
2023/05/11 06:03:00;;;;;;;1.43;1.17;;;10.90;99.90;;;;;;5065355;28;20460;-77
2023/05/11 06:05:27;;;;;;;1.47;1.37;;;11.00;99.90;;;;;;5065199;28;20467;-78
2023/05/11 06:07:53;;;;;;;1.27;1.17;;;11.10;99.90;;;;;;5066793;28;20452;-80
2023/05/11 06:10:20;;;;;;;1.97;1.43;;;11.10;99.90;;;;;;5064007;28;20460;-79
2023/05/11 06:12:48;;;;;;;1.77;1.63;;;11.20;99.90;;;;;;5069385;28;20521;-77
2023/05/11 06:15:15;;;;;;;1.50;1.40;;;11.40;99.90;;;;;;5068866;28;20515;-77
2023/05/11 06:17:43;;;;;;;2.53;1.87;;;11.60;99.90;;;;;;5066079;28;20456;-78
2023/05/11 06:20:11;;;;;;;3.37;1.23;;;11.70;99.90;;;;;;5064176;28;20789;-79
2023/05/11 06:22:38;;;;;;;1.17;1.07;;;11.70;99.90;;;;;;5063270;28;20472;-76
2023/05/11 06:25:06;;;;;;;0.90;0.90;;;11.70;99.90;;;;;;5067347;28;20498;-81
2023/05/11 06:27:33;;;;;;;0.90;0.90;;;11.80;99.90;;;;;;5069775;28;20467;-78
2023/05/11 06:30:00;;;;;;;1.20;1.10;;;12.00;99.90;;;;;;5068022;28;20515;-77
2023/05/11 06:32:27;;;;;;;0.97;0.90;;;12.00;99.90;;;;;;5066018;28;20820;-81
2023/05/11 06:34:55;;;;;;;1.10;1.00;;;12.00;99.90;;;;;;5062194;28;20525;-82
2023/05/11 06:37:22;;;;;;;1.93;0.97;;;12.20;99.90;;;;;;5058346;28;20457;-79
2023/05/11 06:39:49;;;;;;;0.83;0.83;;;12.50;99.90;;;;;;5067625;28;20521;-79
2023/05/11 06:42:16;;;;;;;1.10;1.00;;;12.70;99.90;;;;;;5057441;28;20445;-81
2023/05/11 06:44:43;;;;;;;1.20;1.10;;;13.00;99.90;;;;;;5056022;28;20505;-78
2023/05/11 06:47:10;;;;;;;1.33;0.70;;;13.00;99.90;;;;;;5065035;28;20445;-78
2023/05/11 06:49:37;;;;;;;1.10;1.10;;;13.10;99.90;;;;;;5058890;28;20476;-80
2023/05/11 06:52:05;;;;;;;0.87;0.87;;;13.00;99.90;;;;;;5068691;28;20448;-83
2023/05/11 06:54:32;;;;;;;4.60;2.37;;;13.10;99.90;;;;;;5065235;28;21159;-80
2023/05/11 06:56:59;;;;;;;2.37;2.17;;;13.20;99.90;;;;;;5062228;28;20837;-82
2023/05/11 06:59:26;;;;;;;2.80;2.43;;;13.20;99.90;;;;;;5068135;28;20506;-78
2023/05/11 07:01:53;;;;;;;1.67;1.57;;;13.00;99.90;;;;;;5070465;28;20533;-77
2023/05/11 07:04:20;;;;;;;1.70;1.60;;;13.00;99.90;;;;;;5058114;28;20494;-78
2023/05/11 07:06:47;;;;;;;2.10;1.90;;;13.20;99.90;;;;;;5062986;28;20505;-78
2023/05/11 07:09:15;;;;;;;2.03;1.93;;;13.20;99.90;;;;;;5068828;28;20456;-85
2023/05/11 07:11:42;;;;;;;1.90;1.70;;;13.30;99.90;;;;;;5057326;28;20437;-77
2023/05/11 07:14:09;;;;;;;2.70;1.80;;;13.40;99.90;;;;;;5061950;28;20505;-80
2023/05/11 07:16:37;;;;;;;2.00;1.80;;;13.50;99.90;;;;;;5058586;28;20530;-79
2023/05/11 07:19:04;;;;;;;1.93;1.83;;;13.60;99.90;;;;;;5066051;28;20912;-78
2023/05/11 07:21:32;;;;;;;1.60;1.50;;;13.70;99.90;;;;;;5061371;28;20915;-80
2023/05/11 07:23:59;;;;;;;2.40;1.90;;;13.80;99.90;;;;;;5060226;28;20461;-79
2023/05/11 07:26:27;;;;;;;2.27;1.70;;;13.60;99.90;;;;;;5074418;28;20472;-79
2023/05/11 07:28:54;;;;;;;1.60;0.97;;;13.80;99.90;;;;;;5073708;28;20464;-80
2023/05/11 07:31:21;;;;;;;2.70;1.50;;;13.70;99.90;;;;;;5077309;28;20444;-79
2023/05/11 07:33:49;;;;;;;2.17;1.97;;;13.80;99.90;;;;;;5061434;28;20520;-77
2023/05/11 07:36:16;;;;;;;2.90;2.70;;;13.60;99.90;;;;;;5063461;28;20583;-79
2023/05/11 07:38:42;;;;;;;1.70;1.60;;;13.80;99.90;;;;;;5065026;28;21014;-78
2023/05/11 07:41:09;;;;;;;4.00;2.13;;;13.70;99.90;;;;;;5062581;28;20497;-81
2023/05/11 07:43:38;;;;;;;3.43;2.27;;;13.80;99.90;;;;;;5056289;28;20462;-79
2023/05/11 07:46:06;;;;;;;1.60;1.50;;;13.70;99.90;;;;;;5064986;28;20501;-79
2023/05/11 07:48:33;;;;;;;1.67;1.40;;;13.80;99.90;;;;;;5068195;28;20479;-79
2023/05/11 07:51:00;;;;;;;1.30;1.20;;;13.80;99.90;;;;;;5068894;28;20444;-79
2023/05/11 07:53:27;;;;;;;1.50;1.40;;;13.40;99.90;;;;;;5068666;28;20496;-78
2023/05/11 07:55:54;;;;;;;1.07;1.07;;;13.30;99.90;;;;;;5067847;28;20553;-81
2023/05/11 07:58:21;;;;;;;1.23;0.90;;;13.40;99.90;;;;;;5068400;28;20464;-80
2023/05/11 08:00:50;;;;;;;1.50;1.40;;;13.50;99.90;;;;;;5066014;28;20586;-80
2023/05/11 08:03:17;;;;;;;2.27;1.57;;;13.50;99.90;;;;;;5067381;28;20456;-81
2023/05/11 08:05:44;;;;;;;2.30;2.10;;;13.70;99.90;;;;;;5062392;28;20522;-82
2023/05/11 08:08:11;;;;;;;2.33;2.23;;;13.80;99.90;;;;;;5064397;28;20973;-80
2023/05/11 08:10:37;;;;;;;2.90;2.67;;;13.90;99.90;;;;;;5065313;28;20773;-80
2023/05/11 08:13:04;;;;;;;3.53;3.23;;;14.20;99.90;;;;;;5064446;28;20868;-81
2023/05/11 08:15:32;;;;;;;4.40;3.60;;;14.00;99.90;;;;;;5065855;28;20468;-80
2023/05/11 08:18:01;;;;;;;4.20;3.77;;;14.20;99.90;;;;;;5067818;28;20436;-80
2023/05/11 08:20:29;;;;;;;3.67;3.37;;;14.70;99.90;;;;;;5068028;28;20947;-81
2023/05/11 08:22:56;;;;;;;5.07;3.83;;;15.30;99.90;;;;;;5059129;28;20484;-80
2023/05/11 08:25:23;;;;;;;5.63;4.37;;;14.60;99.90;;;;;;5063042;28;20432;-82
2023/05/11 08:27:50;;;;;;;3.33;2.83;;;14.90;99.90;;;;;;5066062;28;20505;-80
2023/05/11 08:30:17;;;;;;;4.33;3.50;;;14.70;99.90;;;;;;5066890;28;20466;-80
2023/05/11 08:32:45;;;;;;;4.97;3.57;;;14.50;99.90;;;;;;5064920;28;20456;-82
2023/05/11 08:35:13;;;;;;;3.93;3.50;;;14.80;99.90;;;;;;5064057;28;20452;-80
2023/05/11 08:37:40;;;;;;;4.43;3.50;;;15.30;99.90;;;;;;5067852;28;20484;-80
2023/05/11 08:40:09;;;;;;;6.30;4.47;;;15.30;99.90;;;;;;5064553;28;20449;-80
2023/05/11 08:42:39;;;;;;;4.80;4.40;;;15.50;99.90;;;;;;5060770;28;20968;-81
2023/05/11 08:45:07;;;;;;;8.40;5.33;;;15.60;99.90;;;;;;5065268;28;20931;-80
2023/05/11 08:47:35;;;;;;;4.23;3.77;;;15.20;99.90;;;;;;5056356;28;20523;-80
2023/05/11 08:50:02;;;;;;;4.13;3.73;;;15.50;99.90;;;;;;5067309;28;20492;-81
2023/05/11 08:52:31;;;;;;;4.73;4.20;;;15.90;99.90;;;;;;5066229;28;20976;-81
2023/05/11 08:54:58;;;;;;;4.20;3.80;;;16.20;99.90;;;;;;5063171;28;20437;-80
2023/05/11 08:57:27;;;;;;;3.40;3.10;;;16.10;99.90;;;;;;5066559;28;20548;-80
2023/05/11 08:59:54;;;;;;;3.73;3.50;;;15.60;99.90;;;;;;5062966;28;20444;-80
2023/05/11 09:02:21;;;;;;;5.93;4.37;;;15.40;99.90;;;;;;5067092;28;20514;-80
2023/05/11 09:04:50;;;;;;;3.70;3.50;;;15.80;99.90;;;;;;5062809;28;20514;-80
2023/05/11 09:07:18;;;;;;;4.50;4.10;;;16.20;99.90;;;;;;5060645;28;20464;-80
2023/05/11 09:09:47;;;;;;;4.13;3.37;;;16.10;99.90;;;;;;5065956;28;20440;-80
2023/05/11 09:12:15;;;;;;;4.83;4.43;;;16.10;99.90;;;;;;5065103;28;20444;-82
2023/05/11 09:14:42;;;;;;;4.53;4.13;;;16.20;99.90;;;;;;5064962;28;20502;-82
2023/05/11 09:17:09;;;;;;;4.67;4.30;;;16.20;99.90;;;;;;5065535;28;20485;-80
2023/05/11 09:19:36;;;;;;;4.90;4.50;;;16.20;99.90;;;;;;5063948;28;20460;-80
2023/05/11 09:22:05;;;;;;;5.63;5.10;;;16.10;99.90;;;;;;5061965;28;20472;-80
2023/05/11 09:24:32;;;;;;;6.10;4.93;;;16.00;99.90;;;;;;5067402;28;20502;-81
2023/05/11 09:27:10;;;;;;;6.10;4.10;;;15.40;99.90;;;;;;5066688;28;20452;-79
2023/05/11 09:29:37;;;;;;;3.70;3.47;;;15.30;99.90;;;;;;5066218;28;20468;-80
2023/05/11 09:32:04;;;;;;;5.17;4.30;;;15.40;99.90;;;;;;5064673;28;20457;-82
2023/05/11 09:34:31;;;;;;;4.57;4.17;;;15.10;99.90;;;;;;5067155;28;20440;-82
2023/05/11 09:36:59;;;;;;;5.97;4.30;;;15.60;99.90;;;;;;5066255;28;20488;-81
2023/05/11 09:39:29;;;;;;;3.90;3.67;;;16.00;99.90;;;;;;5060138;28;20468;-82
2023/05/11 09:44:52;;;;;;;5.13;4.60;;;15.70;99.90;;;;;;5059277;27;20621;-79
2023/05/11 09:47:21;;;;;;;3.87;3.57;;;16.00;99.90;;;;;;5050745;28;21604;-80
2023/05/11 09:49:48;;;;;;;4.57;4.20;;;16.30;99.90;;;;;;5050985;28;20446;-79
2023/05/11 09:52:16;;;;;;;4.50;4.10;;;16.00;99.90;;;;;;5057646;28;20525;-78
2023/05/11 09:54:45;;;;;;;4.80;4.40;;;16.10;99.90;;;;;;5063021;28;20460;-79
2023/05/11 09:57:33;;;;;;;4.83;4.43;;;15.80;99.90;;;;;;5062752;28;20498;-79
2023/05/11 10:00:02;;;;;;;4.90;4.57;;;15.70;99.90;;;;;;5050180;28;20466;-79
2023/05/11 10:02:30;;;;;;;5.10;4.60;;;15.70;99.90;;;;;;5060593;28;21060;-79
2023/05/11 10:04:59;;;;;;;4.83;4.43;;;15.90;99.90;;;;;;5050835;28;20493;-79
2023/05/11 10:07:27;;;;;;;4.73;4.43;;;15.50;99.90;;;;;;5057990;28;20498;-79
2023/05/11 10:09:55;;;;;;;5.50;5.10;;;15.40;99.90;;;;;;5055829;28;20457;-82
2023/05/11 10:12:24;;;;;;;5.53;5.03;;;15.10;99.90;;;;;;5059187;28;20453;-79
2023/05/11 10:14:52;;;;;;;5.03;4.63;;;14.90;99.90;;;;;;5052830;28;20893;-79
2023/05/11 10:17:21;;;;;;;6.40;5.67;;;15.00;99.90;;;;;;5063011;28;20437;-79
2023/05/11 10:19:49;;;;;;;4.60;4.30;;;15.10;99.90;;;;;;5056187;28;20837;-78
2023/05/11 10:22:17;;;;;;;5.70;5.20;;;15.10;99.90;;;;;;5061764;28;20456;-79
2023/05/11 10:24:44;;;;;;;5.67;5.27;;;15.30;99.90;;;;;;5061464;28;20568;-81
2023/05/11 10:27:12;;;;;;;4.97;4.47;;;15.50;99.90;;;;;;5061365;28;20513;-79
2023/05/11 10:29:40;;;;;;;6.10;5.50;;;15.60;99.90;;;;;;5057781;28;20457;-79
2023/05/11 10:32:07;;;;;;;6.93;6.33;;;15.70;99.90;;;;;;5056255;28;20510;-78
2023/05/11 10:34:38;;;;;;;5.17;4.67;;;15.50;99.90;;;;;;5061665;28;20498;-79
2023/05/11 10:37:05;;;;;;;6.07;5.47;;;15.20;99.90;;;;;;5054506;28;20856;-78
2023/05/11 10:39:33;;;;;;;6.57;5.90;;;15.10;99.90;;;;;;5061896;28;20479;-78
2023/05/11 10:42:29;;;;;;;4.70;4.30;;;15.10;99.90;;;;;;5065665;28;20510;-78
2023/05/11 10:45:08;;;;;;;6.23;5.73;;;14.90;99.90;;;;;;5069967;28;20481;-79
2023/05/11 10:48:10;;;;;;;7.07;6.23;;;14.90;99.90;;;;;;5068581;28;20799;-77
2023/05/11 10:50:55;;;;;;;5.57;5.10;;;14.70;99.90;;;;;;5069592;28;20432;-81
2023/05/11 10:53:40;;;;;;;7.30;6.00;;;14.40;99.90;;;;;;5060006;28;20472;-79
2023/05/11 10:56:42;;;;;;;6.53;6.03;;;14.40;99.90;;;;;;5045307;28;20526;-83
2023/05/11 10:59:32;;;;;;;8.20;6.93;;;14.30;99.90;;;;;;5048715;28;20963;-81
2023/05/11 11:02:00;;;;;;;7.43;6.83;;;14.30;99.90;;;;;;5037178;28;20506;-81
2023/05/11 11:04:42;;;;;;;8.23;7.47;;;14.60;99.90;;;;;;5049014;28;20481;-81
2023/05/11 11:07:12;;;;;;;8.17;6.43;;;15.00;99.90;;;;;;5039792;28;20491;-80
2023/05/11 11:09:53;;;;;;;7.23;6.63;;;15.20;99.90;;;;;;5047801;28;20823;-81
2023/05/11 11:12:21;;;;;;;6.67;6.17;;;15.40;99.90;;;;;;5041649;28;20515;-81
2023/05/11 11:14:55;;;;;;;6.33;5.83;;;15.80;99.90;;;;;;5038454;28;20847;-81
2023/05/11 11:17:24;;;;;;;6.93;6.30;;;15.70;99.90;;;;;;5035540;28;20736;-80
2023/05/11 11:19:51;;;;;;;7.57;6.97;;;15.60;99.90;;;;;;5036829;28;20528;-82
2023/05/11 11:22:47;;;;;;;6.33;5.70;;;15.50;99.90;;;;;;5033231;28;20490;-81
2023/05/11 11:25:35;;;;;;;6.90;6.30;;;15.50;99.90;;;;;;5001768;28;20525;-81
2023/05/11 11:28:02;;;;;;;7.30;6.70;;;15.50;99.90;;;;;;5034437;28;20472;-81
2023/05/11 11:30:30;;;;;;;7.10;6.60;;;15.60;99.90;;;;;;5039928;28;20446;-81
2023/05/11 11:33:33;;;;;;;7.67;6.50;;;15.40;99.90;;;;;;5046532;28;20445;-81
2023/05/11 11:36:01;;;;;;;8.10;7.30;;;15.80;99.90;;;;;;5041763;28;20990;-81
2023/05/11 11:38:32;;;;;;;7.00;6.40;;;15.90;99.90;;;;;;5034203;28;20545;-79
2023/05/11 11:40:59;;;;;;;6.97;6.37;;;16.10;99.90;;;;;;5046933;28;20452;-80
2023/05/11 11:43:29;;;;;;;8.50;7.57;;;16.20;99.90;;;;;;5038440;28;20550;-79
2023/05/11 11:45:57;;;;;;;10.63;7.80;;;16.10;99.90;;;;;;5039812;28;20530;-79
2023/05/11 11:48:31;;;;;;;7.30;6.70;;;16.10;99.90;;;;;;5039208;28;20632;-79
2023/05/11 11:51:03;;;;;;;8.07;6.87;;;16.10;99.90;;;;;;5043221;28;20445;-79
2023/05/11 11:54:01;;;;;;;7.40;6.70;;;16.00;99.90;;;;;;5047734;28;20952;-79
2023/05/11 11:56:43;;;;;;;7.83;7.13;;;16.10;99.90;;;;;;5002398;28;20521;-79
2023/05/11 11:59:12;;;;;;;8.43;7.63;;;15.70;99.90;;;;;;5042882;28;20445;-79
2023/05/11 12:01:41;;;;;;;9.33;8.37;;;15.60;99.90;;;;;;5047995;28;20863;-78
2023/05/11 12:04:40;;;;;;;7.27;6.70;;;15.70;99.90;;;;;;5048049;28;20538;-78
2023/05/11 12:07:10;;;;;;;8.00;7.37;;;15.60;99.90;;;;;;5042677;28;21024;-78
2023/05/11 12:09:40;;;;;;;10.60;9.70;;;15.80;99.90;;;;;;5048685;28;20433;-79
2023/05/11 12:12:10;;;;;;;9.43;8.47;;;15.70;99.90;;;;;;5046742;28;20469;-79
2023/05/11 12:14:38;;;;;;;8.63;7.80;;;15.60;99.90;;;;;;5042346;28;20441;-79
2023/05/11 12:17:12;;;;;;;8.83;8.00;;;15.50;99.90;;;;;;5035727;28;20454;-78
2023/05/11 12:19:40;;;;;;;9.27;8.47;;;15.30;99.90;;;;;;5040980;28;20476;-81
2023/05/11 12:22:09;;;;;;;9.17;8.40;;;15.10;99.90;;;;;;5041232;28;20443;-80
2023/05/11 12:24:37;;;;;;;8.93;8.03;;;15.00;99.90;;;;;;5043678;28;20491;-80
2023/05/11 12:27:06;;;;;;;9.20;8.30;;;15.10;99.90;;;;;;5036718;28;20486;-82
2023/05/11 12:29:33;;;;;;;8.80;8.07;;;15.20;99.90;;;;;;5040125;28;20460;-80
2023/05/11 12:32:00;;;;;;;13.47;9.23;;;15.30;99.90;;;;;;5043235;28;20977;-82
2023/05/11 12:34:27;;;;;;;10.40;9.40;;;15.20;99.90;;;;;;5039240;28;20528;-81
2023/05/11 12:36:56;;;;;;;10.40;9.40;;;15.10;99.90;;;;;;5042054;28;20465;-80
2023/05/11 12:39:26;;;;;;;12.33;9.50;;;15.30;99.90;;;;;;5041892;28;20473;-80
2023/05/11 12:41:54;;;;;;;9.70;8.90;;;15.40;99.90;;;;;;5040122;28;20449;-80
2023/05/11 12:44:23;;;;;;;9.73;8.83;;;15.60;99.90;;;;;;5042402;28;20488;-81
2023/05/11 12:46:50;;;;;;;10.47;9.47;;;15.50;99.90;;;;;;5041335;28;20469;-77
2023/05/11 12:49:18;;;;;;;10.73;9.63;;;15.60;99.90;;;;;;5039366;28;20454;-78
2023/05/11 12:51:49;;;;;;;10.97;8.40;;;15.50;99.90;;;;;;5046345;28;20445;-79
2023/05/11 12:54:27;;;;;;;10.63;9.00;;;15.50;99.90;;;;;;5047329;28;20522;-78
2023/05/11 12:56:54;;;;;;;10.30;9.30;;;15.00;99.90;;;;;;5039848;28;20510;-79
2023/05/11 12:59:30;;;;;;;9.20;8.40;;;15.00;99.90;;;;;;5046059;28;20457;-79